sensor_id;sensor_type;location;lat;lon;timestamp;P1;durP1;ratioP1;P2;durP2;ratioP2
41709;SDS011;59402;48.396;-4.472;2022-12-13T00:01:33;20.42;;;11.07;;
41709;SDS011;59402;48.396;-4.472;2022-12-13T00:03:59;18.23;;;11.20;;
41709;SDS011;59402;48.396;-4.472;2022-12-13T00:06:26;20.33;;;11.98;;
41709;SDS011;59402;48.396;-4.472;2022-12-13T00:08:52;18.67;;;11.55;;
41709;SDS011;59402;48.396;-4.472;2022-12-13T00:11:18;17.85;;;10.68;;
41709;SDS011;59402;48.396;-4.472;2022-12-13T00:13:44;19.48;;;11.60;;
41709;SDS011;59402;48.396;-4.472;2022-12-13T00:18:40;17.70;;;10.70;;
41709;SDS011;59402;48.396;-4.472;2022-12-13T00:21:08;19.57;;;11.20;;
41709;SDS011;59402;48.396;-4.472;2022-12-13T00:23:37;18.73;;;11.43;;
41709;SDS011;59402;48.396;-4.472;2022-12-13T00:26:08;21.40;;;11.30;;
41709;SDS011;59402;48.396;-4.472;2022-12-13T00:28:35;19.75;;;11.10;;
41709;SDS011;59402;48.396;-4.472;2022-12-13T00:31:01;18.95;;;11.48;;
41709;SDS011;59402;48.396;-4.472;2022-12-13T00:33:27;18.10;;;11.40;;
41709;SDS011;59402;48.396;-4.472;2022-12-13T00:35:53;20.73;;;12.43;;
41709;SDS011;59402;48.396;-4.472;2022-12-13T00:38:19;17.70;;;11.23;;
41709;SDS011;59402;48.396;-4.472;2022-12-13T00:40:45;19.13;;;11.18;;
41709;SDS011;59402;48.396;-4.472;2022-12-13T00:43:11;20.73;;;11.40;;
41709;SDS011;59402;48.396;-4.472;2022-12-13T00:45:37;18.42;;;10.75;;
41709;SDS011;59402;48.396;-4.472;2022-12-13T00:48:03;19.35;;;10.40;;
41709;SDS011;59402;48.396;-4.472;2022-12-13T00:50:29;18.77;;;11.30;;
41709;SDS011;59402;48.396;-4.472;2022-12-13T00:52:55;16.38;;;10.20;;
41709;SDS011;59402;48.396;-4.472;2022-12-13T00:55:20;17.75;;;10.32;;
41709;SDS011;59402;48.396;-4.472;2022-12-13T00:57:46;16.73;;;10.38;;
41709;SDS011;59402;48.396;-4.472;2022-12-13T01:00:11;18.77;;;10.65;;
41709;SDS011;59402;48.396;-4.472;2022-12-13T01:02:37;17.42;;;9.85;;
41709;SDS011;59402;48.396;-4.472;2022-12-13T01:05:02;17.33;;;10.13;;
41709;SDS011;59402;48.396;-4.472;2022-12-13T01:07:28;18.23;;;10.30;;
41709;SDS011;59402;48.396;-4.472;2022-12-13T01:09:56;17.77;;;9.85;;
41709;SDS011;59402;48.396;-4.472;2022-12-13T01:12:22;17.02;;;10.27;;
41709;SDS011;59402;48.396;-4.472;2022-12-13T01:14:47;16.60;;;10.35;;
41709;SDS011;59402;48.396;-4.472;2022-12-13T01:17:12;17.27;;;9.70;;
41709;SDS011;59402;48.396;-4.472;2022-12-13T01:19:38;15.40;;;9.05;;
41709;SDS011;59402;48.396;-4.472;2022-12-13T01:22:04;16.15;;;9.27;;
41709;SDS011;59402;48.396;-4.472;2022-12-13T01:24:32;16.55;;;9.63;;
41709;SDS011;59402;48.396;-4.472;2022-12-13T01:26:57;17.42;;;8.90;;
41709;SDS011;59402;48.396;-4.472;2022-12-13T01:29:23;16.58;;;9.80;;
41709;SDS011;59402;48.396;-4.472;2022-12-13T01:31:50;15.80;;;9.65;;
41709;SDS011;59402;48.396;-4.472;2022-12-13T01:34:17;15.63;;;9.88;;
41709;SDS011;59402;48.396;-4.472;2022-12-13T01:36:45;19.48;;;9.52;;
41709;SDS011;59402;48.396;-4.472;2022-12-13T01:39:12;15.23;;;8.98;;
41709;SDS011;59402;48.396;-4.472;2022-12-13T01:41:39;17.40;;;10.82;;
41709;SDS011;59402;48.396;-4.472;2022-12-13T01:44:51;15.75;;;9.65;;
41709;SDS011;59402;48.396;-4.472;2022-12-13T01:47:09;14.18;;;8.85;;
41709;SDS011;59402;48.396;-4.472;2022-12-13T01:49:35;15.32;;;9.40;;
41709;SDS011;59402;48.396;-4.472;2022-12-13T01:52:02;15.20;;;9.50;;
41709;SDS011;59402;48.396;-4.472;2022-12-13T01:54:31;18.52;;;9.23;;
41709;SDS011;59402;48.396;-4.472;2022-12-13T01:57:01;15.00;;;8.30;;
41709;SDS011;59402;48.396;-4.472;2022-12-13T01:59:29;13.15;;;8.45;;
41709;SDS011;59402;48.396;-4.472;2022-12-13T02:01:54;18.25;;;9.20;;
41709;SDS011;59402;48.396;-4.472;2022-12-13T02:04:22;16.65;;;9.00;;
41709;SDS011;59402;48.396;-4.472;2022-12-13T02:06:52;15.80;;;9.05;;
41709;SDS011;59402;48.396;-4.472;2022-12-13T02:09:17;17.27;;;9.35;;
41709;SDS011;59402;48.396;-4.472;2022-12-13T02:11:43;15.13;;;9.60;;
41709;SDS011;59402;48.396;-4.472;2022-12-13T02:14:10;15.52;;;9.10;;
41709;SDS011;59402;48.396;-4.472;2022-12-13T02:17:21;16.05;;;9.13;;
41709;SDS011;59402;48.396;-4.472;2022-12-13T02:22:51;15.65;;;8.40;;
41709;SDS011;59402;48.396;-4.472;2022-12-13T02:28:12;12.57;;;7.40;;
41709;SDS011;59402;48.396;-4.472;2022-12-13T02:30:40;14.95;;;8.15;;
41709;SDS011;59402;48.396;-4.472;2022-12-13T02:35:41;14.25;;;7.75;;
41709;SDS011;59402;48.396;-4.472;2022-12-13T02:41:12;12.25;;;6.80;;
41709;SDS011;59402;48.396;-4.472;2022-12-13T02:46:26;14.02;;;7.63;;
41709;SDS011;59402;48.396;-4.472;2022-12-13T02:48:54;13.15;;;7.80;;
41709;SDS011;59402;48.396;-4.472;2022-12-13T02:51:20;14.80;;;6.60;;
41709;SDS011;59402;48.396;-4.472;2022-12-13T02:53:47;10.93;;;6.97;;
41709;SDS011;59402;48.396;-4.472;2022-12-13T02:56:12;11.10;;;6.45;;
41709;SDS011;59402;48.396;-4.472;2022-12-13T02:58:42;10.32;;;6.20;;
41709;SDS011;59402;48.396;-4.472;2022-12-13T03:17:37;13.68;;;6.25;;
41709;SDS011;59402;48.396;-4.472;2022-12-13T03:20:07;10.60;;;5.97;;
41709;SDS011;59402;48.396;-4.472;2022-12-13T03:22:33;10.43;;;5.53;;
41709;SDS011;59402;48.396;-4.472;2022-12-13T03:24:59;9.63;;;5.93;;
41709;SDS011;59402;48.396;-4.472;2022-12-13T03:27:24;10.68;;;5.75;;
41709;SDS011;59402;48.396;-4.472;2022-12-13T03:29:50;9.68;;;4.90;;
41709;SDS011;59402;48.396;-4.472;2022-12-13T03:32:15;9.98;;;5.13;;
41709;SDS011;59402;48.396;-4.472;2022-12-13T03:34:41;11.65;;;5.45;;
41709;SDS011;59402;48.396;-4.472;2022-12-13T03:37:06;8.93;;;5.07;;
41709;SDS011;59402;48.396;-4.472;2022-12-13T03:39:32;9.35;;;5.20;;
41709;SDS011;59402;48.396;-4.472;2022-12-13T03:41:57;9.43;;;5.15;;
41709;SDS011;59402;48.396;-4.472;2022-12-13T03:44:23;11.25;;;5.25;;
41709;SDS011;59402;48.396;-4.472;2022-12-13T03:46:48;8.30;;;4.47;;
41709;SDS011;59402;48.396;-4.472;2022-12-13T03:49:13;10.52;;;5.15;;
41709;SDS011;59402;48.396;-4.472;2022-12-13T03:51:39;8.95;;;4.85;;
41709;SDS011;59402;48.396;-4.472;2022-12-13T03:54:04;7.75;;;4.25;;
41709;SDS011;59402;48.396;-4.472;2022-12-13T03:56:30;8.43;;;4.65;;
41709;SDS011;59402;48.396;-4.472;2022-12-13T03:58:55;8.45;;;4.63;;
41709;SDS011;59402;48.396;-4.472;2022-12-13T04:01:21;9.10;;;4.25;;
41709;SDS011;59402;48.396;-4.472;2022-12-13T04:03:47;9.82;;;4.28;;
41709;SDS011;59402;48.396;-4.472;2022-12-13T04:06:12;7.47;;;4.13;;
41709;SDS011;59402;48.396;-4.472;2022-12-13T04:08:38;8.30;;;4.05;;
41709;SDS011;59402;48.396;-4.472;2022-12-13T04:11:04;6.70;;;3.88;;
41709;SDS011;59402;48.396;-4.472;2022-12-13T04:13:49;8.75;;;4.43;;
41709;SDS011;59402;48.396;-4.472;2022-12-13T04:16:15;7.07;;;3.85;;
41709;SDS011;59402;48.396;-4.472;2022-12-13T04:18:40;8.02;;;3.92;;
41709;SDS011;59402;48.396;-4.472;2022-12-13T04:21:06;8.88;;;3.78;;
41709;SDS011;59402;48.396;-4.472;2022-12-13T04:23:31;7.28;;;4.13;;
41709;SDS011;59402;48.396;-4.472;2022-12-13T04:25:57;7.50;;;3.58;;
41709;SDS011;59402;48.396;-4.472;2022-12-13T04:28:23;8.13;;;3.40;;
41709;SDS011;59402;48.396;-4.472;2022-12-13T04:30:49;6.45;;;3.40;;
41709;SDS011;59402;48.396;-4.472;2022-12-13T04:33:15;6.60;;;3.50;;
41709;SDS011;59402;48.396;-4.472;2022-12-13T04:35:40;6.63;;;3.65;;
41709;SDS011;59402;48.396;-4.472;2022-12-13T04:38:06;6.47;;;3.10;;
41709;SDS011;59402;48.396;-4.472;2022-12-13T04:40:31;7.00;;;3.40;;
41709;SDS011;59402;48.396;-4.472;2022-12-13T04:42:56;6.60;;;3.25;;
41709;SDS011;59402;48.396;-4.472;2022-12-13T04:45:22;6.68;;;3.30;;
41709;SDS011;59402;48.396;-4.472;2022-12-13T04:47:48;6.07;;;3.25;;
41709;SDS011;59402;48.396;-4.472;2022-12-13T04:50:13;6.57;;;3.42;;
41709;SDS011;59402;48.396;-4.472;2022-12-13T04:52:39;6.35;;;3.20;;
41709;SDS011;59402;48.396;-4.472;2022-12-13T04:55:05;6.38;;;3.53;;
41709;SDS011;59402;48.396;-4.472;2022-12-13T04:57:31;7.20;;;3.60;;
41709;SDS011;59402;48.396;-4.472;2022-12-13T04:59:57;7.22;;;3.30;;
41709;SDS011;59402;48.396;-4.472;2022-12-13T05:02:23;7.18;;;3.40;;
41709;SDS011;59402;48.396;-4.472;2022-12-13T05:04:49;5.60;;;2.90;;
41709;SDS011;59402;48.396;-4.472;2022-12-13T05:07:14;6.50;;;3.50;;
41709;SDS011;59402;48.396;-4.472;2022-12-13T05:09:39;7.57;;;3.42;;
41709;SDS011;59402;48.396;-4.472;2022-12-13T05:12:05;7.30;;;3.70;;
41709;SDS011;59402;48.396;-4.472;2022-12-13T05:14:31;7.95;;;3.60;;
41709;SDS011;59402;48.396;-4.472;2022-12-13T05:16:56;7.80;;;3.75;;
41709;SDS011;59402;48.396;-4.472;2022-12-13T05:19:22;6.30;;;3.53;;
41709;SDS011;59402;48.396;-4.472;2022-12-13T05:21:48;7.65;;;3.60;;
41709;SDS011;59402;48.396;-4.472;2022-12-13T05:24:13;7.47;;;3.60;;
41709;SDS011;59402;48.396;-4.472;2022-12-13T05:26:39;7.20;;;3.40;;
41709;SDS011;59402;48.396;-4.472;2022-12-13T05:29:04;5.05;;;2.85;;
41709;SDS011;59402;48.396;-4.472;2022-12-13T05:31:30;8.55;;;3.92;;
41709;SDS011;59402;48.396;-4.472;2022-12-13T05:33:55;6.38;;;3.83;;
41709;SDS011;59402;48.396;-4.472;2022-12-13T05:36:21;6.57;;;3.78;;
41709;SDS011;59402;48.396;-4.472;2022-12-13T05:38:49;9.57;;;4.05;;
41709;SDS011;59402;48.396;-4.472;2022-12-13T05:41:16;8.85;;;3.95;;
41709;SDS011;59402;48.396;-4.472;2022-12-13T05:43:43;7.65;;;4.40;;
41709;SDS011;59402;48.396;-4.472;2022-12-13T05:46:09;6.78;;;3.63;;
41709;SDS011;59402;48.396;-4.472;2022-12-13T05:48:38;9.65;;;3.65;;
41709;SDS011;59402;48.396;-4.472;2022-12-13T05:51:04;9.48;;;4.25;;
41709;SDS011;59402;48.396;-4.472;2022-12-13T05:53:29;8.15;;;4.40;;
41709;SDS011;59402;48.396;-4.472;2022-12-13T05:55:58;9.00;;;4.25;;
41709;SDS011;59402;48.396;-4.472;2022-12-13T05:58:25;10.15;;;4.35;;
41709;SDS011;59402;48.396;-4.472;2022-12-13T06:00:50;11.32;;;5.13;;
41709;SDS011;59402;48.396;-4.472;2022-12-13T06:03:16;8.50;;;5.10;;
41709;SDS011;59402;48.396;-4.472;2022-12-13T06:05:41;11.05;;;5.53;;
41709;SDS011;59402;48.396;-4.472;2022-12-13T06:08:08;9.93;;;5.30;;
41709;SDS011;59402;48.396;-4.472;2022-12-13T06:10:33;9.73;;;5.68;;
41709;SDS011;59402;48.396;-4.472;2022-12-13T06:12:59;8.07;;;4.80;;
41709;SDS011;59402;48.396;-4.472;2022-12-13T06:15:24;11.05;;;5.13;;
41709;SDS011;59402;48.396;-4.472;2022-12-13T06:17:50;9.45;;;4.88;;
41709;SDS011;59402;48.396;-4.472;2022-12-13T06:20:16;9.70;;;4.45;;
41709;SDS011;59402;48.396;-4.472;2022-12-13T06:22:42;7.50;;;4.30;;
41709;SDS011;59402;48.396;-4.472;2022-12-13T06:25:08;8.35;;;4.65;;
41709;SDS011;59402;48.396;-4.472;2022-12-13T06:27:33;8.95;;;4.50;;
41709;SDS011;59402;48.396;-4.472;2022-12-13T06:29:59;9.88;;;4.90;;
41709;SDS011;59402;48.396;-4.472;2022-12-13T06:32:24;9.73;;;4.70;;
41709;SDS011;59402;48.396;-4.472;2022-12-13T06:34:50;8.82;;;4.95;;
41709;SDS011;59402;48.396;-4.472;2022-12-13T06:37:15;8.43;;;4.25;;
41709;SDS011;59402;48.396;-4.472;2022-12-13T06:39:41;7.82;;;4.47;;
41709;SDS011;59402;48.396;-4.472;2022-12-13T06:42:06;9.43;;;4.80;;
41709;SDS011;59402;48.396;-4.472;2022-12-13T06:44:40;9.43;;;4.78;;
41709;SDS011;59402;48.396;-4.472;2022-12-13T06:47:06;8.43;;;3.95;;
41709;SDS011;59402;48.396;-4.472;2022-12-13T06:49:32;8.52;;;4.85;;
41709;SDS011;59402;48.396;-4.472;2022-12-13T06:51:57;11.25;;;6.25;;
41709;SDS011;59402;48.396;-4.472;2022-12-13T06:54:23;11.88;;;6.10;;
41709;SDS011;59402;48.396;-4.472;2022-12-13T06:56:48;11.93;;;5.90;;
41709;SDS011;59402;48.396;-4.472;2022-12-13T06:59:13;10.90;;;5.47;;
41709;SDS011;59402;48.396;-4.472;2022-12-13T07:01:39;11.60;;;5.07;;
41709;SDS011;59402;48.396;-4.472;2022-12-13T07:04:05;9.52;;;5.15;;
41709;SDS011;59402;48.396;-4.472;2022-12-13T07:06:30;8.75;;;4.60;;
41709;SDS011;59402;48.396;-4.472;2022-12-13T07:08:56;10.15;;;4.53;;
41709;SDS011;59402;48.396;-4.472;2022-12-13T07:11:26;7.88;;;4.20;;
41709;SDS011;59402;48.396;-4.472;2022-12-13T07:13:53;10.88;;;4.82;;
41709;SDS011;59402;48.396;-4.472;2022-12-13T07:16:20;10.48;;;4.07;;
41709;SDS011;59402;48.396;-4.472;2022-12-13T07:18:46;8.15;;;4.00;;
41709;SDS011;59402;48.396;-4.472;2022-12-13T07:21:12;6.80;;;3.55;;
41709;SDS011;59402;48.396;-4.472;2022-12-13T07:23:39;7.18;;;4.03;;
41709;SDS011;59402;48.396;-4.472;2022-12-13T07:26:06;7.28;;;3.85;;
41709;SDS011;59402;48.396;-4.472;2022-12-13T07:28:33;7.15;;;4.03;;
41709;SDS011;59402;48.396;-4.472;2022-12-13T07:31:05;8.75;;;4.25;;
41709;SDS011;59402;48.396;-4.472;2022-12-13T07:33:31;9.38;;;4.22;;
41709;SDS011;59402;48.396;-4.472;2022-12-13T07:38:33;9.07;;;4.32;;
41709;SDS011;59402;48.396;-4.472;2022-12-13T07:40:59;8.25;;;4.20;;
41709;SDS011;59402;48.396;-4.472;2022-12-13T07:43:25;9.05;;;4.03;;
41709;SDS011;59402;48.396;-4.472;2022-12-13T07:45:51;9.65;;;4.00;;
41709;SDS011;59402;48.396;-4.472;2022-12-13T07:48:17;8.05;;;4.20;;
41709;SDS011;59402;48.396;-4.472;2022-12-13T07:50:42;7.43;;;3.53;;
41709;SDS011;59402;48.396;-4.472;2022-12-13T07:53:08;7.15;;;3.88;;
41709;SDS011;59402;48.396;-4.472;2022-12-13T07:55:34;10.30;;;4.03;;
41709;SDS011;59402;48.396;-4.472;2022-12-13T07:58:07;11.27;;;3.63;;
41709;SDS011;59402;48.396;-4.472;2022-12-13T08:00:35;6.85;;;3.20;;
41709;SDS011;59402;48.396;-4.472;2022-12-13T08:03:01;9.07;;;3.85;;
41709;SDS011;59402;48.396;-4.472;2022-12-13T08:05:27;8.55;;;3.90;;
41709;SDS011;59402;48.396;-4.472;2022-12-13T08:07:53;7.50;;;3.67;;
41709;SDS011;59402;48.396;-4.472;2022-12-13T08:10:19;8.32;;;3.47;;
41709;SDS011;59402;48.396;-4.472;2022-12-13T08:12:45;7.90;;;3.83;;
41709;SDS011;59402;48.396;-4.472;2022-12-13T08:15:10;8.23;;;4.00;;
41709;SDS011;59402;48.396;-4.472;2022-12-13T08:17:36;9.07;;;3.88;;
41709;SDS011;59402;48.396;-4.472;2022-12-13T08:20:02;7.45;;;3.97;;
41709;SDS011;59402;48.396;-4.472;2022-12-13T08:22:29;7.60;;;4.05;;
41709;SDS011;59402;48.396;-4.472;2022-12-13T08:24:54;9.07;;;4.07;;
41709;SDS011;59402;48.396;-4.472;2022-12-13T08:27:20;6.85;;;3.67;;
41709;SDS011;59402;48.396;-4.472;2022-12-13T08:29:45;9.10;;;4.55;;
41709;SDS011;59402;48.396;-4.472;2022-12-13T08:32:11;9.05;;;4.43;;
41709;SDS011;59402;48.396;-4.472;2022-12-13T08:34:37;7.07;;;4.10;;
41709;SDS011;59402;48.396;-4.472;2022-12-13T08:37:03;10.07;;;4.20;;
41709;SDS011;59402;48.396;-4.472;2022-12-13T08:39:31;9.90;;;4.45;;
41709;SDS011;59402;48.396;-4.472;2022-12-13T08:42:02;8.32;;;4.47;;
41709;SDS011;59402;48.396;-4.472;2022-12-13T08:44:28;10.05;;;4.97;;
41709;SDS011;59402;48.396;-4.472;2022-12-13T08:46:54;11.20;;;5.88;;
41709;SDS011;59402;48.396;-4.472;2022-12-13T08:49:19;13.18;;;5.80;;
41709;SDS011;59402;48.396;-4.472;2022-12-13T08:51:45;10.57;;;5.75;;
41709;SDS011;59402;48.396;-4.472;2022-12-13T08:54:11;9.27;;;5.03;;
41709;SDS011;59402;48.396;-4.472;2022-12-13T08:56:36;9.25;;;5.25;;
41709;SDS011;59402;48.396;-4.472;2022-12-13T08:59:02;10.93;;;5.00;;
41709;SDS011;59402;48.396;-4.472;2022-12-13T09:01:27;11.82;;;4.95;;
41709;SDS011;59402;48.396;-4.472;2022-12-13T09:03:54;9.82;;;5.15;;
41709;SDS011;59402;48.396;-4.472;2022-12-13T09:06:20;10.07;;;5.28;;
41709;SDS011;59402;48.396;-4.472;2022-12-13T09:08:46;9.98;;;4.88;;
41709;SDS011;59402;48.396;-4.472;2022-12-13T09:11:11;9.65;;;5.00;;
41709;SDS011;59402;48.396;-4.472;2022-12-13T09:13:37;11.15;;;5.43;;
41709;SDS011;59402;48.396;-4.472;2022-12-13T09:16:07;9.35;;;5.45;;
41709;SDS011;59402;48.396;-4.472;2022-12-13T09:18:35;12.05;;;7.40;;
41709;SDS011;59402;48.396;-4.472;2022-12-13T09:21:04;11.60;;;6.90;;
41709;SDS011;59402;48.396;-4.472;2022-12-13T09:23:33;11.68;;;6.85;;
41709;SDS011;59402;48.396;-4.472;2022-12-13T09:25:59;15.50;;;6.53;;
41709;SDS011;59402;48.396;-4.472;2022-12-13T09:28:28;11.63;;;6.07;;
41709;SDS011;59402;48.396;-4.472;2022-12-13T09:30:54;12.05;;;6.25;;
41709;SDS011;59402;48.396;-4.472;2022-12-13T09:33:20;12.52;;;6.97;;
41709;SDS011;59402;48.396;-4.472;2022-12-13T09:35:46;9.80;;;5.57;;
41709;SDS011;59402;48.396;-4.472;2022-12-13T09:38:11;9.10;;;5.68;;
41709;SDS011;59402;48.396;-4.472;2022-12-13T09:40:37;12.02;;;6.95;;
41709;SDS011;59402;48.396;-4.472;2022-12-13T09:43:03;11.32;;;6.38;;
41709;SDS011;59402;48.396;-4.472;2022-12-13T09:45:29;10.55;;;6.05;;
41709;SDS011;59402;48.396;-4.472;2022-12-13T09:47:55;11.52;;;6.22;;
41709;SDS011;59402;48.396;-4.472;2022-12-13T09:50:26;10.85;;;5.70;;
41709;SDS011;59402;48.396;-4.472;2022-12-13T09:52:53;10.50;;;6.50;;
41709;SDS011;59402;48.396;-4.472;2022-12-13T09:55:23;11.18;;;6.72;;
41709;SDS011;59402;48.396;-4.472;2022-12-13T09:57:53;14.13;;;6.75;;
41709;SDS011;59402;48.396;-4.472;2022-12-13T10:00:20;11.20;;;6.68;;
41709;SDS011;59402;48.396;-4.472;2022-12-13T10:02:48;12.68;;;6.68;;
41709;SDS011;59402;48.396;-4.472;2022-12-13T10:07:42;11.45;;;6.07;;
41709;SDS011;59402;48.396;-4.472;2022-12-13T10:10:08;11.88;;;6.40;;
41709;SDS011;59402;48.396;-4.472;2022-12-13T10:12:35;15.90;;;7.32;;
41709;SDS011;59402;48.396;-4.472;2022-12-13T10:15:01;12.00;;;7.22;;
41709;SDS011;59402;48.396;-4.472;2022-12-13T10:17:30;11.73;;;6.50;;
41709;SDS011;59402;48.396;-4.472;2022-12-13T10:19:57;12.82;;;6.95;;
41709;SDS011;59402;48.396;-4.472;2022-12-13T10:22:23;11.82;;;6.80;;
41709;SDS011;59402;48.396;-4.472;2022-12-13T10:24:52;12.50;;;7.10;;
41709;SDS011;59402;48.396;-4.472;2022-12-13T10:27:26;11.77;;;6.75;;
41709;SDS011;59402;48.396;-4.472;2022-12-13T10:32:31;11.35;;;6.63;;
41709;SDS011;59402;48.396;-4.472;2022-12-13T10:34:59;13.05;;;7.43;;
41709;SDS011;59402;48.396;-4.472;2022-12-13T10:39:51;14.77;;;7.37;;
41709;SDS011;59402;48.396;-4.472;2022-12-13T10:42:18;13.57;;;7.88;;
41709;SDS011;59402;48.396;-4.472;2022-12-13T10:44:45;14.68;;;7.30;;
41709;SDS011;59402;48.396;-4.472;2022-12-13T10:47:17;17.40;;;8.52;;
41709;SDS011;59402;48.396;-4.472;2022-12-13T10:49:51;12.50;;;7.43;;
41709;SDS011;59402;48.396;-4.472;2022-12-13T10:54:55;12.68;;;8.00;;
41709;SDS011;59402;48.396;-4.472;2022-12-13T10:57:22;13.55;;;8.23;;
41709;SDS011;59402;48.396;-4.472;2022-12-13T10:59:49;14.05;;;8.13;;
41709;SDS011;59402;48.396;-4.472;2022-12-13T11:02:32;12.85;;;7.97;;
41709;SDS011;59402;48.396;-4.472;2022-12-13T11:07:50;13.82;;;8.30;;
41709;SDS011;59402;48.396;-4.472;2022-12-13T11:12:44;13.95;;;8.25;;
41709;SDS011;59402;48.396;-4.472;2022-12-13T11:15:15;14.15;;;7.97;;
41709;SDS011;59402;48.396;-4.472;2022-12-13T11:17:49;14.57;;;8.32;;
41709;SDS011;59402;48.396;-4.472;2022-12-13T11:20:18;15.02;;;8.38;;
41709;SDS011;59402;48.396;-4.472;2022-12-13T11:22:45;15.90;;;8.73;;
41709;SDS011;59402;48.396;-4.472;2022-12-13T11:25:19;14.40;;;9.35;;
41709;SDS011;59402;48.396;-4.472;2022-12-13T11:28:02;14.93;;;8.88;;
41709;SDS011;59402;48.396;-4.472;2022-12-13T11:33:40;15.20;;;9.07;;
41709;SDS011;59402;48.396;-4.472;2022-12-13T11:36:36;13.82;;;8.95;;
41709;SDS011;59402;48.396;-4.472;2022-12-13T11:47:38;15.27;;;9.13;;
41709;SDS011;59402;48.396;-4.472;2022-12-13T11:50:19;16.17;;;9.60;;
41709;SDS011;59402;48.396;-4.472;2022-12-13T11:52:51;17.60;;;10.05;;
41709;SDS011;59402;48.396;-4.472;2022-12-13T11:55:18;16.05;;;9.23;;
41709;SDS011;59402;48.396;-4.472;2022-12-13T12:00:34;15.38;;;9.15;;
41709;SDS011;59402;48.396;-4.472;2022-12-13T12:03:09;16.15;;;9.52;;
41709;SDS011;59402;48.396;-4.472;2022-12-13T12:05:41;15.13;;;9.40;;
41709;SDS011;59402;48.396;-4.472;2022-12-13T12:08:11;19.30;;;9.93;;
41709;SDS011;59402;48.396;-4.472;2022-12-13T12:10:47;15.50;;;9.27;;
41709;SDS011;59402;48.396;-4.472;2022-12-13T12:13:20;15.90;;;10.05;;
41709;SDS011;59402;48.396;-4.472;2022-12-13T12:16:11;16.83;;;9.93;;
41709;SDS011;59402;48.396;-4.472;2022-12-13T12:18:40;16.58;;;9.25;;
41709;SDS011;59402;48.396;-4.472;2022-12-13T12:44:15;20.65;;;10.43;;
41709;SDS011;59402;48.396;-4.472;2022-12-13T12:47:02;17.90;;;10.13;;
41709;SDS011;59402;48.396;-4.472;2022-12-13T12:55:17;18.25;;;10.90;;
41709;SDS011;59402;48.396;-4.472;2022-12-13T12:57:58;17.58;;;10.80;;
41709;SDS011;59402;48.396;-4.472;2022-12-13T13:00:27;20.02;;;10.73;;
41709;SDS011;59402;48.396;-4.472;2022-12-13T13:05:32;17.20;;;10.75;;
41709;SDS011;59402;48.396;-4.472;2022-12-13T13:08:08;17.70;;;11.45;;
41709;SDS011;59402;48.396;-4.472;2022-12-13T13:10:37;18.63;;;11.40;;
41709;SDS011;59402;48.396;-4.472;2022-12-13T13:13:04;18.02;;;11.50;;
41709;SDS011;59402;48.396;-4.472;2022-12-13T13:17:55;24.42;;;13.50;;
41709;SDS011;59402;48.396;-4.472;2022-12-13T13:20:21;21.35;;;13.48;;
41709;SDS011;59402;48.396;-4.472;2022-12-13T13:22:48;18.60;;;11.90;;
41709;SDS011;59402;48.396;-4.472;2022-12-13T13:25:28;20.10;;;12.70;;
41709;SDS011;59402;48.396;-4.472;2022-12-13T13:33:48;19.27;;;11.65;;
41709;SDS011;59402;48.396;-4.472;2022-12-13T13:39:15;19.70;;;12.55;;
41709;SDS011;59402;48.396;-4.472;2022-12-13T14:30:26;23.42;;;13.93;;
41709;SDS011;59402;48.396;-4.472;2022-12-13T14:32:52;20.73;;;12.70;;
41709;SDS011;59402;48.396;-4.472;2022-12-13T14:35:35;20.05;;;12.57;;
41709;SDS011;59402;48.396;-4.472;2022-12-13T14:38:02;20.42;;;13.30;;
41709;SDS011;59402;48.396;-4.472;2022-12-13T14:40:47;22.88;;;13.52;;
41709;SDS011;59402;48.396;-4.472;2022-12-13T14:43:25;21.05;;;12.98;;
41709;SDS011;59402;48.396;-4.472;2022-12-13T14:45:53;22.42;;;13.30;;
41709;SDS011;59402;48.396;-4.472;2022-12-13T14:48:20;20.95;;;12.68;;
41709;SDS011;59402;48.396;-4.472;2022-12-13T14:50:46;20.35;;;13.00;;
41709;SDS011;59402;48.396;-4.472;2022-12-13T14:53:21;20.05;;;13.02;;
41709;SDS011;59402;48.396;-4.472;2022-12-13T14:56:04;19.73;;;12.48;;
41709;SDS011;59402;48.396;-4.472;2022-12-13T14:58:31;21.55;;;13.60;;
41709;SDS011;59402;48.396;-4.472;2022-12-13T15:00:57;20.10;;;12.25;;
41709;SDS011;59402;48.396;-4.472;2022-12-13T15:03:23;21.88;;;14.07;;
41709;SDS011;59402;48.396;-4.472;2022-12-13T15:05:53;21.25;;;13.05;;
41709;SDS011;59402;48.396;-4.472;2022-12-13T15:08:21;21.70;;;13.57;;
41709;SDS011;59402;48.396;-4.472;2022-12-13T15:10:48;21.10;;;13.55;;
41709;SDS011;59402;48.396;-4.472;2022-12-13T15:15:56;24.15;;;13.98;;
41709;SDS011;59402;48.396;-4.472;2022-12-13T15:18:31;26.52;;;15.82;;
41709;SDS011;59402;48.396;-4.472;2022-12-13T15:21:01;25.08;;;14.80;;
41709;SDS011;59402;48.396;-4.472;2022-12-13T15:23:33;27.60;;;16.23;;
41709;SDS011;59402;48.396;-4.472;2022-12-13T15:26:11;23.77;;;15.55;;
41709;SDS011;59402;48.396;-4.472;2022-12-13T15:28:44;28.58;;;16.50;;
41709;SDS011;59402;48.396;-4.472;2022-12-13T15:31:12;24.92;;;15.77;;
41709;SDS011;59402;48.396;-4.472;2022-12-13T15:33:38;26.17;;;15.48;;
41709;SDS011;59402;48.396;-4.472;2022-12-13T15:38:35;26.55;;;16.80;;
41709;SDS011;59402;48.396;-4.472;2022-12-13T15:41:02;26.10;;;15.88;;
41709;SDS011;59402;48.396;-4.472;2022-12-13T15:43:35;26.10;;;16.75;;
41709;SDS011;59402;48.396;-4.472;2022-12-13T15:46:06;25.40;;;16.52;;
41709;SDS011;59402;48.396;-4.472;2022-12-13T15:48:33;29.10;;;17.35;;
41709;SDS011;59402;48.396;-4.472;2022-12-13T15:51:08;31.50;;;17.40;;
41709;SDS011;59402;48.396;-4.472;2022-12-13T15:59:33;34.60;;;18.58;;
41709;SDS011;59402;48.396;-4.472;2022-12-13T16:02:00;32.08;;;19.35;;
41709;SDS011;59402;48.396;-4.472;2022-12-13T16:04:28;32.95;;;19.23;;
41709;SDS011;59402;48.396;-4.472;2022-12-13T16:06:57;29.58;;;17.58;;
41709;SDS011;59402;48.396;-4.472;2022-12-13T16:09:26;30.77;;;17.83;;
41709;SDS011;59402;48.396;-4.472;2022-12-13T16:11:54;28.63;;;17.60;;
41709;SDS011;59402;48.396;-4.472;2022-12-13T16:14:26;32.00;;;18.40;;
41709;SDS011;59402;48.396;-4.472;2022-12-13T16:17:01;30.10;;;17.45;;
41709;SDS011;59402;48.396;-4.472;2022-12-13T16:19:30;31.63;;;18.77;;
41709;SDS011;59402;48.396;-4.472;2022-12-13T16:21:56;27.08;;;16.85;;
41709;SDS011;59402;48.396;-4.472;2022-12-13T16:24:22;29.58;;;17.55;;
41709;SDS011;59402;48.396;-4.472;2022-12-13T16:26:47;27.55;;;16.98;;
41709;SDS011;59402;48.396;-4.472;2022-12-13T16:29:14;32.40;;;18.83;;
41709;SDS011;59402;48.396;-4.472;2022-12-13T16:31:41;29.02;;;17.95;;
41709;SDS011;59402;48.396;-4.472;2022-12-13T16:34:08;30.05;;;16.73;;
41709;SDS011;59402;48.396;-4.472;2022-12-13T16:36:34;27.77;;;16.92;;
41709;SDS011;59402;48.396;-4.472;2022-12-13T16:39:00;28.30;;;17.83;;
41709;SDS011;59402;48.396;-4.472;2022-12-13T16:41:26;29.83;;;17.40;;
41709;SDS011;59402;48.396;-4.472;2022-12-13T16:43:52;26.65;;;17.23;;
41709;SDS011;59402;48.396;-4.472;2022-12-13T16:46:20;24.95;;;15.82;;
41709;SDS011;59402;48.396;-4.472;2022-12-13T16:48:46;27.20;;;17.10;;
41709;SDS011;59402;48.396;-4.472;2022-12-13T16:51:11;30.50;;;17.35;;
41709;SDS011;59402;48.396;-4.472;2022-12-13T16:53:37;30.08;;;17.83;;
41709;SDS011;59402;48.396;-4.472;2022-12-13T16:56:02;28.35;;;17.50;;
41709;SDS011;59402;48.396;-4.472;2022-12-13T16:58:28;29.15;;;18.05;;
41709;SDS011;59402;48.396;-4.472;2022-12-13T17:00:54;25.65;;;16.90;;
41709;SDS011;59402;48.396;-4.472;2022-12-13T17:03:19;28.80;;;17.27;;
41709;SDS011;59402;48.396;-4.472;2022-12-13T17:05:45;31.40;;;18.13;;
41709;SDS011;59402;48.396;-4.472;2022-12-13T17:08:11;30.35;;;18.20;;
41709;SDS011;59402;48.396;-4.472;2022-12-13T17:10:38;31.40;;;18.88;;
41709;SDS011;59402;48.396;-4.472;2022-12-13T17:13:04;29.42;;;18.42;;